createdAt,value
2022-07-26T00:01:20.698Z,100379.31
2022-07-26T00:03:48.642Z,100376.25
2022-07-26T00:06:15.267Z,100373.03
2022-07-26T00:08:42.011Z,100380.94
2022-07-26T00:11:08.761Z,100375.72
2022-07-26T00:13:35.287Z,100374.59
2022-07-26T00:16:02.546Z,100385.59
2022-07-26T00:18:29.377Z,100376.06
2022-07-26T00:20:55.955Z,100374.44
2022-07-26T00:23:23.036Z,100370.88
2022-07-26T00:25:49.728Z,100372.00
2022-07-26T00:28:16.238Z,100370.75
2022-07-26T00:30:42.863Z,100369.25
2022-07-26T00:33:09.445Z,100376.31
2022-07-26T00:35:36.024Z,100382.28
2022-07-26T00:38:02.609Z,100377.13
2022-07-26T00:40:30.430Z,100380.25
2022-07-26T00:42:56.939Z,100385.75
2022-07-26T00:45:24.039Z,100387.38
2022-07-26T00:47:50.666Z,100384.63
2022-07-26T00:50:18.868Z,100388.22
2022-07-26T00:52:48.406Z,100390.56
2022-07-26T00:55:15.661Z,100399.59
2022-07-26T00:57:43.328Z,100404.84
2022-07-26T01:00:14.223Z,100404.88
2022-07-26T01:02:41.234Z,100411.13
2022-07-26T01:05:08.585Z,100410.44
2022-07-26T01:07:36.764Z,100411.41
2022-07-26T01:10:07.490Z,100412.03
2022-07-26T01:12:34.273Z,100412.09
2022-07-26T01:15:00.849Z,100404.59
2022-07-26T01:17:28.151Z,100406.16
2022-07-26T01:19:54.647Z,100398.00
2022-07-26T01:22:21.259Z,100398.00
2022-07-26T01:24:47.803Z,100398.97
2022-07-26T01:27:14.380Z,100396.34
2022-07-26T01:29:41.100Z,100398.22
2022-07-26T01:32:08.812Z,100404.63
2022-07-26T01:34:35.503Z,100406.56
2022-07-26T01:37:02.442Z,100413.00
2022-07-26T01:39:29.111Z,100412.97
2022-07-26T01:41:56.784Z,100414.91
2022-07-26T01:44:23.856Z,100409.19
2022-07-26T01:46:50.600Z,100408.09
2022-07-26T01:49:17.338Z,100407.06
2022-07-26T01:51:44.017Z,100400.78
2022-07-26T01:54:11.654Z,100401.41
2022-07-26T01:56:38.578Z,100394.25
2022-07-26T01:59:05.216Z,100399.13
2022-07-26T02:01:39.681Z,100401.91
2022-07-26T02:04:29.971Z,100396.44
2022-07-26T02:06:56.437Z,100402.44
2022-07-26T02:09:22.987Z,100399.47
2022-07-26T02:11:51.841Z,100404.97
2022-07-26T02:14:25.484Z,100407.44
2022-07-26T02:16:59.595Z,100409.13
2022-07-26T02:19:29.704Z,100413.50
2022-07-26T02:21:56.470Z,100413.41
2022-07-26T02:24:23.604Z,100413.50
2022-07-26T02:26:50.092Z,100409.97
2022-07-26T02:29:16.746Z,100420.78
2022-07-26T02:31:43.259Z,100418.00
2022-07-26T02:34:15.984Z,100419.84
2022-07-26T02:36:42.540Z,100427.09
2022-07-26T02:39:09.478Z,100430.19
2022-07-26T02:41:36.000Z,100430.16
2022-07-26T02:44:02.586Z,100424.59
2022-07-26T02:46:29.189Z,100426.31
2022-07-26T02:48:57.882Z,100420.47
2022-07-26T02:51:24.421Z,100431.75
2022-07-26T02:53:51.006Z,100424.75
2022-07-26T02:56:17.729Z,100423.25
2022-07-26T02:58:44.220Z,100424.06
2022-07-26T03:01:10.900Z,100421.72
2022-07-26T03:03:38.271Z,100414.19
2022-07-26T03:06:05.302Z,100411.03
2022-07-26T03:08:31.778Z,100409.88
2022-07-26T03:10:58.310Z,100415.41
2022-07-26T03:13:24.773Z,100424.91
2022-07-26T03:15:51.332Z,100428.13
2022-07-26T03:18:17.913Z,100414.72
2022-07-26T03:20:45.131Z,100411.94
2022-07-26T03:23:11.710Z,100414.72
2022-07-26T03:25:38.223Z,100422.59
2022-07-26T03:28:05.004Z,100429.16
2022-07-26T03:30:31.548Z,100418.28
2022-07-26T03:32:58.021Z,100419.50
2022-07-26T03:35:25.364Z,100412.78
2022-07-26T03:37:52.426Z,100415.53
2022-07-26T03:40:19.584Z,100417.97
2022-07-26T03:42:47.427Z,100419.19
2022-07-26T03:45:15.468Z,100410.47
2022-07-26T03:47:42.399Z,100411.28
2022-07-26T03:50:09.599Z,100418.81
2022-07-26T03:52:36.114Z,100419.22
2022-07-26T03:55:22.903Z,100416.03
2022-07-26T03:57:49.475Z,100422.78
2022-07-26T04:00:16.178Z,100414.91
2022-07-26T04:02:42.783Z,100429.88
2022-07-26T04:05:10.249Z,100421.25
2022-07-26T04:07:52.791Z,100434.25
2022-07-26T04:10:20.899Z,100433.09
2022-07-26T04:12:47.457Z,100433.06
2022-07-26T04:15:16.085Z,100442.56
2022-07-26T04:17:43.437Z,100431.47
2022-07-26T04:20:11.881Z,100435.47
2022-07-26T04:22:39.702Z,100433.09
2022-07-26T04:25:07.967Z,100430.34
2022-07-26T04:27:34.937Z,100428.75
2022-07-26T04:30:01.590Z,100430.72
2022-07-26T04:32:28.454Z,100433.88
2022-07-26T04:34:54.921Z,100435.47
2022-07-26T04:37:21.425Z,100447.28
2022-07-26T04:39:52.935Z,100441.78
2022-07-26T04:42:21.403Z,100433.88
2022-07-26T04:44:47.872Z,100442.16
2022-07-26T04:47:14.357Z,100432.31
2022-07-26T04:49:40.858Z,100430.72
2022-07-26T04:52:07.473Z,100436.66
2022-07-26T04:54:33.977Z,100438.22
2022-07-26T04:57:00.484Z,100434.66
2022-07-26T04:59:26.957Z,100437.03
2022-07-26T05:01:53.493Z,100436.22
2022-07-26T05:04:20.053Z,100430.69
2022-07-26T05:06:46.569Z,100434.25
2022-07-26T05:09:13.106Z,100437.03
2022-07-26T05:11:39.659Z,100438.16
2022-07-26T05:14:06.520Z,100434.59
2022-07-26T05:16:33.281Z,100437.41
2022-07-26T05:19:00.060Z,100448.88
2022-07-26T05:21:28.002Z,100450.00
2022-07-26T05:23:55.529Z,100457.56
2022-07-26T05:26:22.226Z,100446.88
2022-07-26T05:28:49.347Z,100453.19
2022-07-26T05:31:16.278Z,100461.88
2022-07-26T05:33:42.931Z,100459.50
2022-07-26T05:36:09.655Z,100456.31
2022-07-26T05:38:36.492Z,100453.50
2022-07-26T05:41:03.067Z,100462.59
2022-07-26T05:43:39.451Z,100458.28
2022-07-26T05:46:09.833Z,100460.59
2022-07-26T05:48:37.056Z,100467.28
2022-07-26T05:51:03.711Z,100472.06
2022-07-26T05:53:30.192Z,100474.81
2022-07-26T05:55:56.714Z,100474.41
2022-07-26T05:58:23.197Z,100479.16
2022-07-26T06:00:49.730Z,100482.69
2022-07-26T06:03:22.191Z,100476.34
2022-07-26T06:05:49.385Z,100476.31
2022-07-26T06:08:16.105Z,100476.72
2022-07-26T06:10:42.629Z,100474.31
2022-07-26T06:13:09.277Z,100476.28
2022-07-26T06:15:37.841Z,100481.38
2022-07-26T06:18:05.892Z,100481.38
2022-07-26T06:20:32.817Z,100483.31
2022-07-26T06:23:00.345Z,100493.59
2022-07-26T06:25:27.551Z,100496.34
2022-07-26T06:27:54.034Z,100502.16
2022-07-26T06:30:20.527Z,100501.88
2022-07-26T06:32:47.290Z,100515.47
2022-07-26T06:35:15.018Z,100518.09
2022-07-26T06:37:42.614Z,100518.91
2022-07-26T06:40:10.539Z,100518.16
2022-07-26T06:42:37.926Z,100518.63
2022-07-26T06:45:05.802Z,100524.72
2022-07-26T06:47:32.526Z,100524.63
2022-07-26T06:49:59.054Z,100535.41
2022-07-26T06:52:25.796Z,100539.53
2022-07-26T06:54:52.271Z,100539.50
2022-07-26T06:57:18.831Z,100534.66
2022-07-26T06:59:45.286Z,100542.53
2022-07-26T07:02:11.789Z,100547.94
2022-07-26T07:04:38.365Z,100556.84
2022-07-26T07:07:08.453Z,100559.00
2022-07-26T07:09:36.010Z,100561.19
2022-07-26T07:12:09.337Z,100561.47
2022-07-26T07:14:37.120Z,100571.00
2022-07-26T07:17:03.631Z,100566.28
2022-07-26T07:19:38.034Z,100575.25
2022-07-26T07:22:06.007Z,100575.25
2022-07-26T07:24:32.538Z,100579.69
2022-07-26T07:27:01.206Z,100572.91
2022-07-26T07:29:27.910Z,100572.81
2022-07-26T07:31:55.824Z,100575.16
2022-07-26T07:34:23.858Z,100571.78
2022-07-26T07:36:50.824Z,100570.13
2022-07-26T07:39:17.888Z,100576.16
2022-07-26T07:41:45.491Z,100581.75
2022-07-26T07:44:12.287Z,100592.09
2022-07-26T07:46:38.872Z,100593.97
2022-07-26T07:49:06.890Z,100593.03
2022-07-26T07:51:34.002Z,100593.78
2022-07-26T07:54:05.626Z,100598.38
2022-07-26T07:56:33.067Z,100600.78
2022-07-26T07:58:59.641Z,100601.91
2022-07-26T08:01:39.239Z,100614.59
2022-07-26T08:04:07.431Z,100618.53
2022-07-26T08:06:33.938Z,100618.28
2022-07-26T08:09:00.504Z,100616.22
2022-07-26T08:11:27.362Z,100618.53
2022-07-26T08:13:56.538Z,100620.81
2022-07-26T08:16:23.130Z,100624.84
2022-07-26T08:18:56.990Z,100629.53
2022-07-26T08:21:24.095Z,100631.94
2022-07-26T08:23:52.884Z,100630.53
2022-07-26T08:26:19.482Z,100626.91
2022-07-26T08:28:47.872Z,100629.25
2022-07-26T08:31:16.355Z,100631.34
2022-07-26T08:33:45.844Z,100629.16
2022-07-26T08:36:14.422Z,100641.31
2022-07-26T08:38:41.844Z,100642.25
2022-07-26T08:41:08.381Z,100634.00
2022-07-26T08:43:51.636Z,100639.06
2022-07-26T08:46:25.515Z,100645.81
2022-07-26T08:48:53.167Z,100648.66
2022-07-26T08:51:22.550Z,100650.66
2022-07-26T08:53:50.273Z,100651.91
2022-07-26T08:56:16.789Z,100661.00
2022-07-26T08:58:43.837Z,100650.38
2022-07-26T09:01:14.932Z,100664.66
2022-07-26T09:03:43.065Z,100651.13
2022-07-26T09:06:18.374Z,100655.84
2022-07-26T09:08:48.480Z,100656.50
2022-07-26T09:11:24.334Z,100657.78
2022-07-26T09:13:58.535Z,100661.00
2022-07-26T09:16:25.691Z,100661.09
2022-07-26T09:18:52.659Z,100659.03
2022-07-26T09:21:29.078Z,100661.78
2022-07-26T09:23:56.639Z,100663.28
2022-07-26T09:26:26.025Z,100664.94
2022-07-26T09:29:06.229Z,100665.91
2022-07-26T09:31:33.726Z,100659.16
2022-07-26T09:34:00.340Z,100667.94
2022-07-26T09:36:27.840Z,100666.06
2022-07-26T09:39:04.200Z,100659.09
2022-07-26T09:41:35.333Z,100659.34
2022-07-26T09:44:07.216Z,100653.28
2022-07-26T09:46:35.788Z,100662.66
2022-07-26T09:49:19.671Z,100665.00
2022-07-26T09:51:48.670Z,100663.06
2022-07-26T09:54:31.970Z,100660.38
2022-07-26T09:56:59.062Z,100663.97
2022-07-26T09:59:27.624Z,100667.63
2022-07-26T10:01:55.779Z,100669.63
2022-07-26T10:04:22.861Z,100669.63
2022-07-26T10:06:50.196Z,100666.69
2022-07-26T10:09:18.622Z,100674.09
2022-07-26T10:11:54.424Z,100662.25
2022-07-26T10:14:33.086Z,100669.81
2022-07-26T10:17:00.847Z,100672.25
2022-07-26T10:19:45.800Z,100665.81
2022-07-26T10:22:31.435Z,100669.19
2022-07-26T10:25:17.889Z,100662.44
2022-07-26T10:27:56.140Z,100677.59
2022-07-26T10:30:33.563Z,100662.88
2022-07-26T10:33:02.807Z,100671.53
2022-07-26T10:35:41.327Z,100686.78
2022-07-26T10:38:09.234Z,100692.72
2022-07-26T10:40:56.299Z,100708.75
2022-07-26T10:43:40.085Z,100726.91
2022-07-26T10:46:16.748Z,100739.75
2022-07-26T10:48:59.822Z,100751.03
2022-07-26T10:51:31.728Z,100748.13
2022-07-26T10:54:03.537Z,100737.25
2022-07-26T10:56:33.501Z,100745.97
2022-07-26T10:59:00.980Z,100746.41
2022-07-26T11:01:40.644Z,100746.97
2022-07-26T11:04:18.560Z,100754.78
2022-07-26T11:06:45.787Z,100754.53
2022-07-26T11:09:12.745Z,100759.53
2022-07-26T11:11:40.101Z,100761.16
2022-07-26T11:14:16.049Z,100752.91
2022-07-26T11:16:47.911Z,100745.81
2022-07-26T11:19:19.990Z,100747.56
2022-07-26T11:21:53.788Z,100741.28
2022-07-26T11:24:22.007Z,100740.91
2022-07-26T11:26:48.614Z,100744.97
2022-07-26T11:29:17.385Z,100750.63
2022-07-26T11:31:50.560Z,100751.44
2022-07-26T11:34:28.503Z,100749.81
2022-07-26T11:36:57.239Z,100758.56
2022-07-26T11:39:26.132Z,100757.31
2022-07-26T11:42:04.934Z,100759.97
2022-07-26T11:44:32.167Z,100761.53
2022-07-26T11:46:59.524Z,100754.44
2022-07-26T11:52:24.294Z,100744.63
2022-07-26T11:54:53.232Z,100745.78
2022-07-26T11:57:20.098Z,100751.63
2022-07-26T11:59:50.383Z,100747.41
2022-07-26T12:02:17.202Z,100745.69
2022-07-26T12:04:44.846Z,100745.56
2022-07-26T12:07:13.985Z,100744.47
2022-07-26T12:09:43.275Z,100749.00
2022-07-26T12:12:18.976Z,100745.47
2022-07-26T12:14:56.657Z,100753.25
2022-07-26T12:17:23.178Z,100752.03
2022-07-26T12:19:49.735Z,100751.41
2022-07-26T12:22:21.302Z,100747.72
2022-07-26T12:24:57.850Z,100763.69
2022-07-26T12:27:30.423Z,100761.72
2022-07-26T12:30:17.358Z,100760.47
2022-07-26T12:32:46.095Z,100765.16
2022-07-26T12:35:15.578Z,100760.03
2022-07-26T12:37:48.144Z,100758.63
2022-07-26T12:40:22.305Z,100759.75
2022-07-26T12:42:55.840Z,100756.63
2022-07-26T12:45:35.475Z,100754.25
2022-07-26T12:48:10.033Z,100754.09
2022-07-26T12:50:36.900Z,100751.81
2022-07-26T12:53:06.877Z,100749.78
2022-07-26T12:55:34.455Z,100745.63
2022-07-26T12:58:01.140Z,100750.78
2022-07-26T13:00:29.993Z,100739.47
2022-07-26T13:02:57.332Z,100751.28
2022-07-26T13:05:24.079Z,100743.38
2022-07-26T13:07:54.228Z,100746.75
2022-07-26T13:10:36.698Z,100749.75
2022-07-26T13:13:04.134Z,100747.84
2022-07-26T13:15:36.174Z,100752.47
2022-07-26T13:18:05.059Z,100750.91
2022-07-26T13:20:31.590Z,100750.06
2022-07-26T13:22:58.155Z,100748.41
2022-07-26T13:25:25.439Z,100754.56
2022-07-26T13:27:55.518Z,100760.84
2022-07-26T13:30:24.262Z,100760.78
2022-07-26T13:32:51.811Z,100759.22
2022-07-26T13:35:18.345Z,100764.50
2022-07-26T13:37:44.806Z,100764.25
2022-07-26T13:40:11.750Z,100763.09
2022-07-26T13:42:38.330Z,100770.00
2022-07-26T13:45:06.579Z,100768.88
2022-07-26T13:47:33.291Z,100772.66
2022-07-26T13:49:59.875Z,100778.81
2022-07-26T13:52:26.444Z,100778.75
2022-07-26T13:54:53.162Z,100790.09
2022-07-26T13:57:19.626Z,100785.09
2022-07-26T13:59:46.085Z,100800.41
2022-07-26T14:02:12.967Z,100799.28
2022-07-26T14:04:39.657Z,100796.69
2022-07-26T14:07:06.180Z,100799.47
2022-07-26T14:09:32.680Z,100794.94
2022-07-26T14:11:59.596Z,100802.84
2022-07-26T14:14:26.134Z,100802.00
2022-07-26T14:16:52.697Z,100798.81
2022-07-26T14:19:19.390Z,100815.88
2022-07-26T14:21:50.484Z,100815.53
2022-07-26T14:24:26.354Z,100818.72
2022-07-26T14:26:56.815Z,100814.72
2022-07-26T14:29:25.688Z,100817.94
2022-07-26T14:31:52.320Z,100817.06
2022-07-26T14:34:18.903Z,100820.91
2022-07-26T14:36:45.445Z,100825.88
2022-07-26T14:39:12.018Z,100833.56
2022-07-26T14:41:38.631Z,100836.19
2022-07-26T14:44:05.445Z,100838.63
2022-07-26T14:46:32.139Z,100842.66
2022-07-26T14:48:58.807Z,100842.03
2022-07-26T14:51:25.559Z,100849.44
2022-07-26T14:53:52.705Z,100841.59
2022-07-26T14:56:19.204Z,100854.59
2022-07-26T14:58:45.678Z,100856.25
2022-07-26T15:01:12.307Z,100854.31
2022-07-26T15:03:39.116Z,100858.03
2022-07-26T15:06:05.678Z,100849.25
2022-07-26T15:08:32.162Z,100852.66
2022-07-26T15:10:58.722Z,100851.56
2022-07-26T15:13:25.254Z,100866.69
2022-07-26T15:15:52.123Z,100847.34
2022-07-26T15:18:18.802Z,100863.59
2022-07-26T15:20:45.331Z,100863.00
2022-07-26T15:23:14.912Z,100859.84
2022-07-26T15:25:41.417Z,100869.78
2022-07-26T15:28:08.011Z,100869.69
2022-07-26T15:30:35.384Z,100862.88
2022-07-26T15:33:02.129Z,100865.94
2022-07-26T15:35:29.925Z,100864.50
2022-07-26T15:37:56.696Z,100866.78
2022-07-26T15:40:23.402Z,100857.97
2022-07-26T15:42:52.094Z,100861.16
2022-07-26T15:45:22.551Z,100856.56
2022-07-26T15:47:56.727Z,100868.84
2022-07-26T15:50:26.132Z,100865.88
2022-07-26T15:52:52.768Z,100868.28
2022-07-26T15:55:20.665Z,100875.03
2022-07-26T15:57:47.880Z,100872.75
2022-07-26T16:00:15.406Z,100877.84
2022-07-26T16:02:42.331Z,100875.28
2022-07-26T16:05:10.151Z,100873.84
2022-07-26T16:07:37.447Z,100878.09
2022-07-26T16:10:05.048Z,100881.13
2022-07-26T16:12:31.578Z,100880.88
2022-07-26T16:14:58.053Z,100881.69
2022-07-26T16:17:25.301Z,100887.97
2022-07-26T16:19:53.115Z,100889.16
2022-07-26T16:22:19.710Z,100882.25
2022-07-26T16:24:46.253Z,100886.88
2022-07-26T16:27:12.755Z,100883.31
2022-07-26T16:29:39.294Z,100884.91
2022-07-26T16:32:11.178Z,100879.00
2022-07-26T16:34:38.277Z,100891.22
2022-07-26T16:37:05.586Z,100889.75
2022-07-26T16:39:32.114Z,100891.56
2022-07-26T16:42:03.223Z,100891.94
2022-07-26T16:44:32.938Z,100894.63
2022-07-26T16:46:59.554Z,100886.34
2022-07-26T16:49:26.167Z,100886.06
2022-07-26T16:51:52.788Z,100888.22
2022-07-26T16:54:19.287Z,100894.88
2022-07-26T16:56:45.846Z,100893.97
2022-07-26T16:59:12.643Z,100901.19
2022-07-26T17:01:39.388Z,100895.75
2022-07-26T17:04:05.974Z,100900.97
2022-07-26T17:06:32.551Z,100905.66
2022-07-26T17:08:59.074Z,100902.47
2022-07-26T17:11:25.626Z,100892.97
2022-07-26T17:13:53.354Z,100900.25
2022-07-26T17:16:21.544Z,100903.31
2022-07-26T17:18:51.613Z,100900.09
2022-07-26T17:21:18.111Z,100899.41
2022-07-26T17:23:44.714Z,100899.38
2022-07-26T17:26:11.362Z,100901.03
2022-07-26T17:28:37.927Z,100900.19
2022-07-26T17:31:04.427Z,100906.66
2022-07-26T17:33:31.031Z,100905.44
2022-07-26T17:35:58.777Z,100904.28
2022-07-26T17:38:30.029Z,100909.06
2022-07-26T17:40:56.766Z,100905.44
2022-07-26T17:43:23.257Z,100908.88
2022-07-26T17:45:50.456Z,100921.22
2022-07-26T17:48:16.950Z,100918.31
2022-07-26T17:50:43.463Z,100919.91
2022-07-26T17:53:09.969Z,100918.63
2022-07-26T17:55:36.576Z,100926.09
2022-07-26T17:58:03.128Z,100924.44
2022-07-26T18:00:29.871Z,100928.41
2022-07-26T18:02:57.347Z,100920.09
2022-07-26T18:05:29.959Z,100919.88
2022-07-26T18:08:00.126Z,100927.03
2022-07-26T18:10:27.614Z,100926.91
2022-07-26T18:12:54.677Z,100927.91
2022-07-26T18:15:21.505Z,100937.34
2022-07-26T18:17:48.007Z,100934.63
2022-07-26T18:20:14.538Z,100929.06
2022-07-26T18:22:41.062Z,100925.13
2022-07-26T18:25:07.991Z,100935.03
2022-07-26T18:27:34.592Z,100938.56
2022-07-26T18:30:01.238Z,100935.81
2022-07-26T18:32:27.783Z,100929.91
2022-07-26T18:34:55.329Z,100928.59
2022-07-26T18:37:21.861Z,100930.03
2022-07-26T18:39:52.815Z,100931.25
2022-07-26T18:42:22.349Z,100935.34
2022-07-26T18:44:49.322Z,100932.91
2022-07-26T18:47:16.136Z,100947.19
2022-07-26T18:49:43.926Z,100942.38
2022-07-26T18:52:10.616Z,100940.84
2022-07-26T18:54:37.539Z,100940.13
2022-07-26T18:57:04.995Z,100941.75
2022-07-26T18:59:32.273Z,100961.84
2022-07-26T19:01:59.797Z,100964.28
2022-07-26T19:04:26.823Z,100964.31
2022-07-26T19:06:53.467Z,100964.38
2022-07-26T19:09:20.236Z,100967.56
2022-07-26T19:11:46.852Z,100971.22
2022-07-26T19:14:14.210Z,100974.00
2022-07-26T19:16:41.113Z,100979.13
2022-07-26T19:19:08.264Z,100983.13
2022-07-26T19:21:35.252Z,100980.78
2022-07-26T19:24:01.967Z,100985.09
2022-07-26T19:26:29.831Z,100986.38
2022-07-26T19:28:59.423Z,100991.09
2022-07-26T19:31:27.317Z,100976.88
2022-07-26T19:33:55.662Z,100987.56
2022-07-26T19:36:25.966Z,100984.78
2022-07-26T19:38:59.309Z,100990.34
2022-07-26T19:41:25.808Z,100997.91
2022-07-26T19:43:52.351Z,100991.94
2022-07-26T19:46:19.852Z,100993.50
2022-07-26T19:48:46.818Z,100986.38
2022-07-26T19:51:13.883Z,100992.34
2022-07-26T19:53:45.988Z,100989.94
2022-07-26T19:56:13.033Z,101001.06
2022-07-26T19:58:40.175Z,100999.84
2022-07-26T20:01:06.984Z,100999.06
2022-07-26T20:03:34.003Z,100994.28
2022-07-26T20:06:02.467Z,101003.38
2022-07-26T20:08:29.578Z,101002.22
2022-07-26T20:10:56.670Z,101000.59
2022-07-26T20:13:23.420Z,101004.16
2022-07-26T20:15:50.107Z,100999.81
2022-07-26T20:18:22.107Z,101006.94
2022-07-26T20:20:49.308Z,101000.50
2022-07-26T20:23:16.109Z,101005.19
2022-07-26T20:25:42.858Z,101013.22
2022-07-26T20:28:09.684Z,101013.13
2022-07-26T20:30:36.636Z,101014.34
2022-07-26T20:33:03.766Z,101012.72
2022-07-26T20:35:31.852Z,101011.53
2022-07-26T20:37:58.452Z,101018.25
2022-07-26T20:40:27.516Z,101020.63
2022-07-26T20:42:54.978Z,101017.84
2022-07-26T20:45:24.028Z,101022.19
2022-07-26T20:47:55.172Z,101023.72
2022-07-26T20:50:23.435Z,101017.34
2022-07-26T20:52:50.853Z,101012.56
2022-07-26T20:55:19.015Z,101018.47
2022-07-26T20:57:46.927Z,101024.09
2022-07-26T21:00:14.872Z,101024.09
2022-07-26T21:02:41.686Z,101025.53
2022-07-26T21:05:09.030Z,101035.88
2022-07-26T21:07:57.149Z,101033.50
2022-07-26T21:10:22.620Z,101029.03
2022-07-26T21:12:49.697Z,101040.47
2022-07-26T21:15:16.239Z,101043.75
2022-07-26T21:17:42.872Z,101045.75
2022-07-26T21:20:10.774Z,101034.03
2022-07-26T21:22:37.462Z,101043.06
2022-07-26T21:25:05.622Z,101045.91
2022-07-26T21:27:32.092Z,101049.56
2022-07-26T21:29:58.549Z,101040.81
2022-07-26T21:32:28.377Z,101046.53
2022-07-26T21:34:57.885Z,101048.13
2022-07-26T21:37:24.511Z,101048.84
2022-07-26T21:39:51.086Z,101046.88
2022-07-26T21:42:17.692Z,101045.81
2022-07-26T21:44:44.447Z,101051.19
2022-07-26T21:47:12.096Z,101046.22
2022-07-26T21:49:38.920Z,101052.53
2022-07-26T21:52:12.317Z,101051.44
2022-07-26T21:54:38.925Z,101052.97
2022-07-26T21:57:07.424Z,101049.19
2022-07-26T21:59:34.008Z,101059.50
2022-07-26T22:02:00.921Z,101065.53
2022-07-26T22:04:27.487Z,101071.16
2022-07-26T22:06:54.132Z,101070.78
2022-07-26T22:09:20.650Z,101067.81
2022-07-26T22:11:47.149Z,101075.78
2022-07-26T22:14:13.846Z,101070.34
2022-07-26T22:16:44.136Z,101067.72
2022-07-26T22:19:11.005Z,101079.72
2022-07-26T22:21:37.833Z,101079.34
2022-07-26T22:24:04.682Z,101075.47
2022-07-26T22:26:31.330Z,101072.69
2022-07-26T22:28:58.946Z,101079.59
2022-07-26T22:31:25.953Z,101079.47
2022-07-26T22:33:52.593Z,101075.25
2022-07-26T22:36:19.281Z,101082.75
2022-07-26T22:38:46.361Z,101092.63
2022-07-26T22:41:12.984Z,101083.19
2022-07-26T22:43:39.541Z,101088.50
2022-07-26T22:46:06.077Z,101088.84
2022-07-26T22:48:37.086Z,101094.44
2022-07-26T22:51:04.794Z,101086.97
2022-07-26T22:53:31.341Z,101082.88
2022-07-26T22:55:57.886Z,101086.28
2022-07-26T22:58:24.355Z,101085.28
2022-07-26T23:00:50.936Z,101090.50
2022-07-26T23:03:19.746Z,101081.50
2022-07-26T23:05:48.018Z,101069.38
2022-07-26T23:08:45.904Z,101082.28
2022-07-26T23:11:02.284Z,101082.22
2022-07-26T23:13:28.878Z,101079.47
2022-07-26T23:16:00.489Z,101083.50
2022-07-26T23:18:27.891Z,101088.50
2022-07-26T23:20:54.360Z,101073.63
2022-07-26T23:23:20.838Z,101076.97
2022-07-26T23:25:47.566Z,101074.81
2022-07-26T23:28:35.517Z,101068.56
2022-07-26T23:31:03.007Z,101064.31
2022-07-26T23:33:50.791Z,101066.78
2022-07-26T23:36:15.990Z,101063.59
2022-07-26T23:38:42.462Z,101055.59
2022-07-26T23:41:09.022Z,101057.88
2022-07-26T23:43:35.521Z,101060.28
2022-07-26T23:46:02.084Z,101063.88
2022-07-26T23:48:28.622Z,101050.13
2022-07-26T23:50:55.168Z,101058.69
2022-07-26T23:53:26.761Z,101052.06
2022-07-26T23:55:54.001Z,101058.81
2022-07-26T23:58:20.669Z,101057.47
